createdAt,value
2019-03-09T00:02:06.632Z,10.40
2019-03-09T00:05:11.721Z,10.50
2019-03-09T00:08:23.379Z,10.50
2019-03-09T00:11:28.864Z,10.60
2019-03-09T00:14:33.812Z,10.60
2019-03-09T00:17:39.084Z,10.60
2019-03-09T00:20:44.113Z,10.50
2019-03-09T00:24:07.951Z,10.50
2019-03-09T00:27:29.509Z,10.40
2019-03-09T00:30:41.394Z,10.30
2019-03-09T00:33:46.303Z,10.30
2019-03-09T00:36:51.175Z,10.40
2019-03-09T00:39:56.200Z,10.40
2019-03-09T00:43:04.997Z,10.40
2019-03-09T00:46:09.900Z,10.50
2019-03-09T00:49:18.816Z,10.50
2019-03-09T00:52:23.733Z,10.50
2019-03-09T00:55:28.750Z,10.40
2019-03-09T00:58:33.722Z,10.40
2019-03-09T01:01:41.976Z,10.30
2019-03-09T01:04:47.126Z,10.30
2019-03-09T01:07:52.087Z,10.30
2019-03-09T01:10:57.245Z,10.30
2019-03-09T01:14:02.339Z,10.30
2019-03-09T01:17:07.418Z,10.30
2019-03-09T01:20:14.303Z,10.30
2019-03-09T01:23:19.094Z,10.40
2019-03-09T01:26:23.807Z,10.40
2019-03-09T01:29:28.502Z,10.50
2019-03-09T01:32:33.238Z,10.50
2019-03-09T01:35:38.184Z,10.60
2019-03-09T01:38:43.058Z,10.60
2019-03-09T01:41:48.148Z,10.50
2019-03-09T01:44:53.440Z,10.30
2019-03-09T01:47:58.701Z,10.20
2019-03-09T01:51:03.596Z,10.20
2019-03-09T01:54:08.553Z,10.20
2019-03-09T01:57:13.733Z,10.10
2019-03-09T02:00:19.313Z,10.20
2019-03-09T02:03:24.286Z,10.30
2019-03-09T02:06:29.239Z,10.30
2019-03-09T02:09:34.204Z,10.40
2019-03-09T02:12:39.499Z,10.40
2019-03-09T02:15:44.636Z,10.30
2019-03-09T02:18:49.966Z,10.40
2019-03-09T02:21:54.995Z,10.40
2019-03-09T02:24:59.977Z,10.30
2019-03-09T02:28:05.116Z,10.20
2019-03-09T02:31:10.116Z,10.10
2019-03-09T02:34:15.226Z,10.00
2019-03-09T02:37:20.213Z,10.00
2019-03-09T02:40:26.361Z,10.00
2019-03-09T02:43:31.506Z,10.00
2019-03-09T02:46:36.437Z,10.10
2019-03-09T02:49:42.616Z,10.20
2019-03-09T02:52:47.517Z,10.20
2019-03-09T02:55:52.511Z,10.10
2019-03-09T02:58:57.474Z,10.10
2019-03-09T03:02:23.421Z,10.00
2019-03-09T03:05:28.598Z,10.10
2019-03-09T03:08:33.649Z,10.10
2019-03-09T03:11:42.898Z,10.00
2019-03-09T03:14:55.302Z,10.00
2019-03-09T03:18:00.298Z,10.00
2019-03-09T03:21:05.426Z,10.00
2019-03-09T03:24:19.488Z,10.00
2019-03-09T03:27:24.479Z,10.10
2019-03-09T03:30:29.575Z,10.10
2019-03-09T03:33:34.524Z,10.10
2019-03-09T03:36:39.504Z,10.10
2019-03-09T03:39:44.507Z,10.10
2019-03-09T03:42:49.432Z,10.10
2019-03-09T03:45:54.411Z,10.10
2019-03-09T03:48:59.298Z,10.00
2019-03-09T03:52:04.373Z,10.00
2019-03-09T03:55:09.448Z,9.90
2019-03-09T03:58:14.428Z,9.70
2019-03-09T04:01:19.338Z,9.50
2019-03-09T04:04:24.654Z,9.40
2019-03-09T04:07:29.917Z,9.30
2019-03-09T04:10:35.109Z,9.30
2019-03-09T04:13:40.197Z,9.40
2019-03-09T04:16:45.146Z,9.40
2019-03-09T04:19:50.241Z,9.50
2019-03-09T04:22:55.316Z,9.40
2019-03-09T04:26:00.895Z,9.50
2019-03-09T04:29:05.941Z,9.50
2019-03-09T04:32:11.177Z,9.50
2019-03-09T04:35:16.092Z,9.60
2019-03-09T04:38:22.888Z,9.70
2019-03-09T04:41:28.212Z,9.60
2019-03-09T04:44:33.150Z,9.60
2019-03-09T04:47:38.450Z,9.60
2019-03-09T04:50:43.375Z,9.60
2019-03-09T04:53:48.514Z,9.60
2019-03-09T04:56:53.529Z,9.60
2019-03-09T04:59:58.685Z,9.70
2019-03-09T05:03:03.741Z,9.70
2019-03-09T05:06:11.035Z,9.70
2019-03-09T05:09:50.057Z,9.60
2019-03-09T05:12:58.374Z,9.60
2019-03-09T05:16:03.520Z,9.60
2019-03-09T05:19:08.533Z,9.60
2019-03-09T05:22:13.944Z,9.50
2019-03-09T05:25:18.949Z,9.50
2019-03-09T05:28:24.248Z,9.40
2019-03-09T05:31:29.136Z,9.40
2019-03-09T05:34:34.164Z,9.30
2019-03-09T05:37:43.073Z,9.30
2019-03-09T05:40:46.076Z,9.30
2019-03-09T05:43:51.187Z,9.20
2019-03-09T05:46:56.338Z,9.20
2019-03-09T05:50:01.421Z,9.30
2019-03-09T05:53:11.682Z,9.30
2019-03-09T05:56:16.744Z,9.40
2019-03-09T05:59:21.846Z,9.40
2019-03-09T06:02:26.702Z,9.40
2019-03-09T06:05:42.306Z,9.50
2019-03-09T06:08:48.625Z,9.50
2019-03-09T06:11:53.685Z,9.60
2019-03-09T06:14:58.643Z,9.60
2019-03-09T06:18:03.446Z,9.60
2019-03-09T06:21:08.390Z,9.60
2019-03-09T06:24:13.410Z,9.60
2019-03-09T06:27:18.251Z,9.50
2019-03-09T06:30:23.220Z,9.40
2019-03-09T06:33:46.373Z,9.40
2019-03-09T06:37:03.372Z,9.40
2019-03-09T06:40:08.445Z,9.50
2019-03-09T06:43:13.537Z,9.60
2019-03-09T06:46:19.031Z,9.80
2019-03-09T06:49:24.028Z,9.90
2019-03-09T06:52:29.382Z,10.00
2019-03-09T06:55:34.610Z,10.20
2019-03-09T06:58:39.692Z,10.30
2019-03-09T07:01:44.723Z,10.50
2019-03-09T07:04:49.776Z,10.90
2019-03-09T07:07:54.823Z,11.30
2019-03-09T07:11:00.205Z,11.50
2019-03-09T07:14:40.924Z,11.60
2019-03-09T07:17:45.752Z,11.70
2019-03-09T07:20:51.007Z,11.80
2019-03-09T07:23:55.847Z,11.70
2019-03-09T07:27:00.922Z,11.70
2019-03-09T07:30:08.764Z,11.90
2019-03-09T07:33:13.840Z,12.20
2019-03-09T07:36:19.274Z,12.40
2019-03-09T07:39:24.541Z,12.60
2019-03-09T07:42:29.718Z,12.50
2019-03-09T07:45:34.958Z,12.50
2019-03-09T07:48:40.915Z,12.50
2019-03-09T07:51:46.509Z,12.50
2019-03-09T07:54:52.195Z,12.40
2019-03-09T07:58:05.020Z,12.30
2019-03-09T08:01:10.378Z,12.30
2019-03-09T08:04:15.642Z,13.10
2019-03-09T08:07:20.740Z,13.80
2019-03-09T08:10:26.932Z,13.90
2019-03-09T08:13:31.825Z,14.00
2019-03-09T08:16:36.782Z,14.10
2019-03-09T08:19:41.731Z,13.90
2019-03-09T08:22:48.966Z,13.60
2019-03-09T08:25:53.949Z,13.30
2019-03-09T08:28:58.766Z,13.40
2019-03-09T08:32:15.219Z,14.00
2019-03-09T08:35:20.970Z,15.10
2019-03-09T08:38:25.940Z,16.50
2019-03-09T08:41:31.090Z,17.90
2019-03-09T08:44:36.119Z,20.40
2019-03-09T08:47:51.225Z,22.70
2019-03-09T08:50:47.924Z,24.80
2019-03-09T08:53:59.730Z,26.90
2019-03-09T08:57:04.716Z,28.10
2019-03-09T09:00:13.876Z,29.30
2019-03-09T09:03:18.665Z,30.20
2019-03-09T09:06:23.648Z,29.70
2019-03-09T09:09:29.821Z,30.20
2019-03-09T09:12:34.989Z,30.20
2019-03-09T09:15:39.865Z,30.10
2019-03-09T09:18:44.773Z,29.60
2019-03-09T09:21:55.338Z,28.40
2019-03-09T09:25:00.418Z,27.10
2019-03-09T09:28:05.485Z,24.60
2019-03-09T09:31:11.005Z,24.40
2019-03-09T09:34:15.981Z,24.70
2019-03-09T09:37:21.120Z,25.00
2019-03-09T09:40:26.197Z,25.60
2019-03-09T09:43:31.101Z,26.50
2019-03-09T09:46:36.162Z,27.50
2019-03-09T09:49:41.457Z,28.30
2019-03-09T09:52:46.393Z,28.80
2019-03-09T09:55:51.392Z,27.90
2019-03-09T09:58:56.625Z,26.20
2019-03-09T10:02:02.108Z,27.70
2019-03-09T10:05:07.259Z,28.60
2019-03-09T10:08:12.236Z,29.00
2019-03-09T10:11:17.220Z,27.90
2019-03-09T10:14:22.330Z,26.60
2019-03-09T10:17:27.382Z,26.00
2019-03-09T10:20:32.661Z,26.20
2019-03-09T10:23:37.674Z,27.90
2019-03-09T10:26:42.838Z,29.00
2019-03-09T10:29:48.857Z,29.70
2019-03-09T10:32:53.788Z,30.40
2019-03-09T10:35:58.831Z,30.40
2019-03-09T10:39:05.533Z,31.20
2019-03-09T10:42:13.178Z,31.00
2019-03-09T10:45:18.360Z,31.70
2019-03-09T10:48:23.311Z,34.10
2019-03-09T10:51:32.094Z,36.40
2019-03-09T10:54:38.689Z,37.80
2019-03-09T10:57:44.525Z,37.00
2019-03-09T11:00:49.700Z,36.60
2019-03-09T11:03:59.877Z,37.30
2019-03-09T11:07:05.306Z,37.50
2019-03-09T11:10:10.464Z,39.40
2019-03-09T11:13:15.602Z,39.10
2019-03-09T11:16:20.696Z,39.20
2019-03-09T11:19:25.862Z,38.10
2019-03-09T11:22:34.955Z,36.90
2019-03-09T11:25:39.964Z,38.10
2019-03-09T11:28:45.059Z,38.50
2019-03-09T11:31:49.940Z,37.10
2019-03-09T11:34:55.077Z,35.20
2019-03-09T11:38:00.751Z,32.30
2019-03-09T11:41:18.774Z,31.60
2019-03-09T11:44:15.638Z,31.10
2019-03-09T11:47:20.864Z,30.60
2019-03-09T11:50:25.831Z,31.10
2019-03-09T11:53:30.880Z,31.50
2019-03-09T11:56:36.151Z,33.70
2019-03-09T11:59:41.138Z,35.00
2019-03-09T12:02:46.253Z,35.40
2019-03-09T12:05:53.110Z,34.50
2019-03-09T12:08:59.128Z,32.70
2019-03-09T12:12:05.181Z,29.10
2019-03-09T12:15:10.525Z,27.20
2019-03-09T12:18:15.504Z,29.00
2019-03-09T12:21:20.573Z,30.40
2019-03-09T12:24:25.592Z,33.30
2019-03-09T12:27:35.974Z,33.90
2019-03-09T12:30:41.030Z,32.60
2019-03-09T12:33:46.143Z,32.10
2019-03-09T12:36:51.526Z,33.60
2019-03-09T12:39:56.570Z,34.60
2019-03-09T12:43:01.721Z,35.20
2019-03-09T12:46:06.663Z,34.00
2019-03-09T12:49:11.969Z,31.90
2019-03-09T12:52:16.891Z,29.70
2019-03-09T12:55:21.921Z,27.20
2019-03-09T12:58:27.165Z,26.90
2019-03-09T13:01:32.401Z,26.30
2019-03-09T13:04:37.437Z,25.80
2019-03-09T13:07:43.030Z,25.70
2019-03-09T13:10:48.091Z,25.60
2019-03-09T13:13:53.321Z,25.90
2019-03-09T13:16:58.433Z,25.10
2019-03-09T13:20:03.520Z,24.50
2019-03-09T13:23:08.737Z,25.20
2019-03-09T13:26:13.695Z,26.10
2019-03-09T13:29:20.299Z,27.00
2019-03-09T13:32:25.499Z,28.90
2019-03-09T13:35:30.743Z,30.80
2019-03-09T13:38:35.627Z,31.50
2019-03-09T13:41:40.961Z,31.30
2019-03-09T13:44:46.203Z,30.80
2019-03-09T13:47:51.287Z,30.60
2019-03-09T13:51:02.409Z,30.00
2019-03-09T13:54:08.319Z,28.30
2019-03-09T13:57:14.077Z,27.30
2019-03-09T14:00:18.970Z,26.20
2019-03-09T14:03:24.023Z,24.50
2019-03-09T14:06:28.974Z,23.70
2019-03-09T14:09:34.005Z,23.10
2019-03-09T14:12:38.945Z,22.80
2019-03-09T14:15:44.099Z,22.40
2019-03-09T14:18:49.248Z,22.00
2019-03-09T14:21:54.382Z,21.70
2019-03-09T14:24:59.540Z,21.60
2019-03-09T14:28:04.535Z,21.30
2019-03-09T14:31:12.429Z,21.00
2019-03-09T14:34:19.262Z,20.20
2019-03-09T14:37:26.695Z,19.80
2019-03-09T14:40:31.759Z,19.60
2019-03-09T14:43:40.475Z,19.50
2019-03-09T14:46:45.367Z,19.20
2019-03-09T14:49:50.445Z,19.00
2019-03-09T14:52:55.688Z,18.80
2019-03-09T14:56:00.807Z,18.70
2019-03-09T14:59:05.881Z,18.60
2019-03-09T15:02:11.012Z,18.60
2019-03-09T15:05:17.218Z,18.60
2019-03-09T15:08:23.739Z,18.50
2019-03-09T15:11:28.882Z,18.30
2019-03-09T15:14:33.856Z,18.20
2019-03-09T15:17:38.922Z,18.20
2019-03-09T15:20:44.209Z,18.20
2019-03-09T15:23:51.744Z,18.00
2019-03-09T15:26:56.762Z,17.80
2019-03-09T15:30:01.767Z,17.80
2019-03-09T15:33:06.890Z,17.70
2019-03-09T15:36:11.807Z,17.70
2019-03-09T15:39:16.894Z,17.60
2019-03-09T15:42:22.436Z,17.60
2019-03-09T15:45:27.505Z,17.50
2019-03-09T15:48:32.648Z,17.50
2019-03-09T15:51:43.564Z,17.40
2019-03-09T15:54:48.607Z,17.40
2019-03-09T15:57:53.588Z,17.40
2019-03-09T16:00:58.763Z,17.40
2019-03-09T16:04:03.774Z,17.40
2019-03-09T16:07:09.154Z,17.40
2019-03-09T16:10:14.931Z,17.30
2019-03-09T16:13:19.866Z,17.30
2019-03-09T16:16:24.815Z,17.30
2019-03-09T16:19:30.074Z,17.20
2019-03-09T16:22:35.034Z,17.00
2019-03-09T16:25:40.024Z,16.80
2019-03-09T16:28:45.064Z,16.80
2019-03-09T16:31:49.887Z,16.70
2019-03-09T16:34:54.938Z,16.70
2019-03-09T16:38:00.043Z,16.60
2019-03-09T16:41:05.156Z,16.50
2019-03-09T16:44:10.362Z,16.50
2019-03-09T16:47:15.363Z,16.40
2019-03-09T16:50:23.530Z,16.30
2019-03-09T16:53:28.791Z,16.30
2019-03-09T16:56:33.705Z,16.20
2019-03-09T16:59:41.508Z,16.20
2019-03-09T17:02:46.740Z,16.10
2019-03-09T17:05:51.988Z,15.90
2019-03-09T17:08:57.109Z,15.90
2019-03-09T17:12:02.482Z,15.90
2019-03-09T17:15:07.836Z,15.80
2019-03-09T17:18:12.812Z,15.80
2019-03-09T17:21:17.759Z,15.70
2019-03-09T17:24:22.908Z,15.60
2019-03-09T17:27:27.858Z,15.70
2019-03-09T17:30:32.781Z,15.50
2019-03-09T17:33:38.135Z,15.50
2019-03-09T17:36:42.965Z,15.50
2019-03-09T17:39:48.120Z,15.40
2019-03-09T17:42:53.311Z,15.30
2019-03-09T17:45:58.321Z,15.20
2019-03-09T17:49:03.348Z,15.10
2019-03-09T17:52:08.254Z,15.10
2019-03-09T17:55:13.688Z,15.00
2019-03-09T17:58:18.591Z,15.00
2019-03-09T18:01:24.877Z,14.90
2019-03-09T18:04:29.942Z,14.80
2019-03-09T18:07:35.045Z,14.70
2019-03-09T18:10:46.393Z,14.60
2019-03-09T18:13:51.301Z,14.50
2019-03-09T18:16:56.485Z,14.40
2019-03-09T18:20:01.819Z,14.40
2019-03-09T18:23:07.005Z,14.30
2019-03-09T18:26:12.260Z,14.20
2019-03-09T18:29:17.319Z,14.10
2019-03-09T18:32:22.758Z,14.10
2019-03-09T18:35:27.973Z,14.00
2019-03-09T18:38:33.097Z,14.00
2019-03-09T18:41:38.451Z,13.90
2019-03-09T18:44:43.616Z,13.90
2019-03-09T18:47:48.674Z,13.70
2019-03-09T18:50:53.674Z,13.70
2019-03-09T18:53:58.738Z,13.60
2019-03-09T18:57:03.699Z,13.50
2019-03-09T19:00:10.258Z,13.50
2019-03-09T19:03:15.446Z,13.50
2019-03-09T19:06:20.333Z,13.40
2019-03-09T19:09:25.323Z,13.40
2019-03-09T19:12:30.661Z,13.40
2019-03-09T19:15:35.709Z,13.40
2019-03-09T19:18:40.669Z,13.30
2019-03-09T19:21:45.816Z,13.30
2019-03-09T19:24:50.798Z,13.30
2019-03-09T19:27:55.711Z,13.20
2019-03-09T19:31:00.866Z,13.10
2019-03-09T19:34:05.895Z,13.00
2019-03-09T19:37:12.711Z,12.90
2019-03-09T19:40:17.926Z,12.90
2019-03-09T19:43:22.821Z,12.90
2019-03-09T19:46:27.811Z,12.90
2019-03-09T19:49:36.176Z,12.80
2019-03-09T19:52:41.369Z,12.80
2019-03-09T19:55:46.325Z,12.80
2019-03-09T19:58:51.410Z,12.80
2019-03-09T20:01:56.414Z,12.70
2019-03-09T20:05:01.541Z,12.70
2019-03-09T20:08:06.360Z,12.60
2019-03-09T20:11:11.558Z,12.60
2019-03-09T20:14:16.995Z,12.60
2019-03-09T20:17:22.093Z,12.60
2019-03-09T20:20:28.504Z,12.50
2019-03-09T20:23:33.902Z,12.40
2019-03-09T20:26:38.945Z,12.40
2019-03-09T20:29:44.334Z,12.30
2019-03-09T20:32:49.583Z,12.30
2019-03-09T20:35:54.579Z,12.20
2019-03-09T20:38:59.712Z,12.20
2019-03-09T20:42:08.484Z,12.10
2019-03-09T20:45:14.894Z,12.00
2019-03-09T20:48:24.945Z,12.00
2019-03-09T20:51:30.153Z,12.00
2019-03-09T20:54:35.260Z,11.90
2019-03-09T20:57:41.837Z,11.90
2019-03-09T21:00:46.883Z,11.80
2019-03-09T21:03:51.865Z,11.80
2019-03-09T21:06:56.833Z,11.70
2019-03-09T21:10:01.826Z,11.50
2019-03-09T21:13:07.718Z,11.50
2019-03-09T21:16:12.612Z,11.40
2019-03-09T21:19:17.754Z,11.40
2019-03-09T21:22:22.931Z,11.30
2019-03-09T21:25:28.337Z,11.20
2019-03-09T21:28:33.170Z,11.00
2019-03-09T21:31:38.219Z,11.00
2019-03-09T21:34:43.528Z,11.00
2019-03-09T21:37:48.547Z,11.00
2019-03-09T21:40:55.456Z,11.00
2019-03-09T21:44:00.384Z,10.80
2019-03-09T21:47:05.991Z,10.70
2019-03-09T21:50:13.174Z,10.70
2019-03-09T21:53:19.178Z,10.60
2019-03-09T21:56:24.411Z,10.50
2019-03-09T21:59:29.394Z,10.60
2019-03-09T22:02:34.488Z,10.60
2019-03-09T22:05:39.719Z,10.50
2019-03-09T22:08:44.968Z,10.50
2019-03-09T22:11:50.029Z,10.40
2019-03-09T22:14:55.281Z,10.40
2019-03-09T22:18:00.355Z,10.40
2019-03-09T22:21:05.588Z,10.30
2019-03-09T22:24:10.701Z,10.30
2019-03-09T22:27:17.066Z,10.20
2019-03-09T22:30:21.963Z,10.20
2019-03-09T22:33:26.983Z,10.10
2019-03-09T22:36:32.081Z,10.00
2019-03-09T22:39:37.232Z,10.00
2019-03-09T22:42:42.267Z,10.00
2019-03-09T22:45:47.502Z,9.90
2019-03-09T22:48:52.440Z,9.70
2019-03-09T22:52:00.547Z,9.70
2019-03-09T22:55:05.639Z,9.70
2019-03-09T22:58:10.633Z,9.70
2019-03-09T23:01:16.333Z,9.80
2019-03-09T23:04:21.340Z,9.80
2019-03-09T23:07:26.607Z,9.80
2019-03-09T23:10:31.612Z,9.80
2019-03-09T23:13:36.653Z,9.80
2019-03-09T23:16:41.748Z,9.70
2019-03-09T23:19:46.736Z,9.70
2019-03-09T23:22:51.932Z,9.60
2019-03-09T23:26:01.001Z,9.60
2019-03-09T23:29:06.115Z,9.40
2019-03-09T23:32:11.175Z,9.40
2019-03-09T23:35:17.011Z,9.30
2019-03-09T23:38:22.343Z,9.30
2019-03-09T23:41:27.435Z,9.30
2019-03-09T23:44:32.373Z,9.30
2019-03-09T23:47:37.465Z,9.30
2019-03-09T23:50:42.479Z,9.20
2019-03-09T23:53:47.601Z,9.20
2019-03-09T23:56:52.851Z,9.20
2019-03-09T23:59:57.749Z,9.10
